Time;durP1;ratioP1;P1;durP2;ratioP2;P2;SDS_P1;SDS_P2;PMS_P1;PMS_P2;Temp;Humidity;BMP_temperature;BMP_pressure;BME280_temperature;BME280_humidity;BME280_pressure;Samples;Min_cycle;Max_cycle;Signal;HPM_P1;HPM_P2
2022/09/20 00:00:24;;;;;;;0.63;0.63;;;;;;;9.12;100.00;100652.13;5072872;28;20530;-76
2022/09/20 00:02:49;;;;;;;0.17;0.17;;;;;;;9.14;100.00;100655.34;5066511;28;20225;-76
2022/09/20 00:05:14;;;;;;;4.53;0.53;;;;;;;9.13;100.00;100654.56;5052412;28;20186;-76
2022/09/20 00:07:43;;;;;;;1.47;1.37;;;;;;;9.14;100.00;100661.63;5051427;28;20442;-76
2022/09/20 00:10:09;;;;;;;3.23;0.30;;;;;;;9.18;100.00;100681.72;5052243;28;20183;-76
2022/09/20 00:12:34;;;;;;;0.83;0.40;;;;;;;9.19;100.00;100685.25;5052306;28;20253;-76
2022/09/20 00:14:59;;;;;;;0.73;0.50;;;;;;;9.19;100.00;100690.72;5052111;28;20650;-75
2022/09/20 00:17:25;;;;;;;0.00;0.00;;;;;;;9.18;100.00;100684.44;5051960;28;20195;-76
2022/09/20 00:19:50;;;;;;;0.00;0.00;;;;;;;9.15;100.00;100686.97;5052281;28;20202;-75
2022/09/20 00:22:15;;;;;;;0.00;0.00;;;;;;;9.12;100.00;100677.47;5052132;28;20175;-75
2022/09/20 00:24:41;;;;;;;0.00;0.00;;;;;;;9.10;100.00;100670.66;5052271;28;20187;-76
2022/09/20 00:27:06;;;;;;;18.37;0.27;;;;;;;9.07;100.00;100671.25;5051948;28;20780;-76
2022/09/20 00:29:32;;;;;;;0.23;0.10;;;;;;;9.05;100.00;100682.47;5052125;28;20236;-76
2022/09/20 00:31:57;;;;;;;0.20;0.10;;;;;;;9.04;100.00;100678.13;5051982;28;20515;-76
2022/09/20 00:37:06;;;;;;;0.57;0.57;;;;;;;9.02;100.00;100676.78;5050999;28;20575;-76
2022/09/20 00:39:32;;;;;;;10.77;1.07;;;;;;;8.98;100.00;100681.22;5051251;28;20382;-75
2022/09/20 00:41:57;;;;;;;0.40;0.10;;;;;;;8.91;100.00;100679.66;5051242;28;20171;-76
2022/09/20 00:44:44;;;;;;;0.00;0.00;;;;;;;8.91;100.00;100678.84;5049885;28;20175;-76
2022/09/20 00:47:27;;;;;;;0.00;0.00;;;;;;;8.89;100.00;100675.63;5033283;28;20600;-76
2022/09/20 00:50:01;;;;;;;0.10;0.10;;;;;;;8.87;100.00;100683.28;5051270;28;20594;-76
2022/09/20 00:52:28;;;;;;;0.50;0.50;;;;;;;8.87;100.00;100684.09;5051101;28;20701;-75
2022/09/20 00:54:54;;;;;;;0.43;0.43;;;;;;;8.85;100.00;100678.13;5050924;28;20180;-76
2022/09/20 00:57:19;;;;;;;0.20;0.20;;;;;;;8.85;100.00;100680.03;5050652;28;20536;-75
2022/09/20 00:59:48;;;;;;;0.23;0.20;;;;;;;8.85;100.00;100669.94;5050432;28;20202;-76
2022/09/20 01:02:26;;;;;;;2.40;0.63;;;;;;;8.80;100.00;100667.28;5050894;28;20548;-75
2022/09/20 01:04:51;;;;;;;3.53;1.00;;;;;;;8.78;100.00;100674.13;5050858;28;20190;-76
2022/09/20 01:07:21;;;;;;;0.50;0.50;;;;;;;8.77;100.00;100675.25;5050531;28;20183;-76
2022/09/20 01:09:46;;;;;;;0.17;0.17;;;;;;;8.75;100.00;100670.09;5051069;28;20172;-75
2022/09/20 01:12:16;;;;;;;0.27;0.20;;;;;;;8.75;100.00;100675.53;5050943;28;20174;-76
2022/09/20 01:14:44;;;;;;;1.17;1.10;;;;;;;8.73;100.00;100677.75;5032716;28;20209;-76
2022/09/20 01:17:11;;;;;;;1.17;1.10;;;;;;;8.71;100.00;100677.22;5050498;28;20210;-76
2022/09/20 01:19:55;;;;;;;0.90;0.60;;;;;;;8.70;100.00;100678.34;5050520;28;20179;-76
2022/09/20 01:22:25;;;;;;;2.37;1.60;;;;;;;8.69;100.00;100671.28;5033127;28;20535;-76
2022/09/20 01:25:13;;;;;;;8.53;1.30;;;;;;;8.67;100.00;100670.72;5050588;28;20684;-75
2022/09/20 01:27:48;;;;;;;1.50;0.60;;;;;;;8.67;100.00;100687.06;5050532;28;20627;-76
2022/09/20 01:30:17;;;;;;;2.57;1.97;;;;;;;8.65;100.00;100681.09;5051051;28;20228;-76
2022/09/20 01:33:08;;;;;;;2.63;0.87;;;;;;;8.64;100.00;100682.22;5050719;28;20244;-75
2022/09/20 01:35:35;;;;;;;0.40;0.40;;;;;;;8.66;100.00;100674.56;5050405;28;20179;-75
2022/09/20 01:38:26;;;;;;;0.50;0.50;;;;;;;8.66;100.00;100680.00;5050309;28;20765;-73
2022/09/20 01:41:17;;;;;;;0.30;0.20;;;;;;;8.68;100.00;100683.28;5050365;28;20175;-73
2022/09/20 01:44:04;;;;;;;0.40;0.30;;;;;;;8.70;100.00;100683.78;5048003;28;20195;-75
2022/09/20 01:46:32;;;;;;;0.43;0.43;;;;;;;8.74;100.00;100684.00;5049817;28;20297;-74
2022/09/20 01:49:08;;;;;;;0.43;0.43;;;;;;;8.77;100.00;100686.13;5050303;28;20266;-74
2022/09/20 01:51:46;;;;;;;5.60;0.83;;;;;;;8.80;100.00;100683.63;5050222;28;20634;-74
2022/09/20 01:54:29;;;;;;;0.20;0.20;;;;;;;8.84;100.00;100687.41;5050130;28;20181;-74
2022/09/20 01:57:32;;;;;;;16.73;0.77;;;;;;;8.87;100.00;100681.38;5050101;28;20206;-74
2022/09/20 02:00:14;;;;;;;0.10;0.10;;;;;;;8.92;100.00;100686.72;5048831;28;20676;-74
2022/09/20 02:02:57;;;;;;;0.17;0.17;;;;;;;8.98;100.00;100686.69;5050165;28;20652;-74
2022/09/20 02:05:46;;;;;;;0.17;0.17;;;;;;;8.98;100.00;100689.41;5032072;28;20179;-74
2022/09/20 02:08:48;;;;;;;0.87;0.57;;;;;;;9.01;100.00;100694.25;5050016;28;20605;-75
2022/09/20 02:11:19;;;;;;;0.20;0.20;;;;;;;9.05;100.00;100695.28;5050340;28;20199;-74
2022/09/20 02:14:14;;;;;;;1.00;0.57;;;;;;;9.04;100.00;100699.13;5050076;28;20171;-74
2022/09/20 02:16:45;;;;;;;0.13;0.13;;;;;;;9.06;100.00;100692.25;5049658;28;20365;-73
2022/09/20 02:19:32;;;;;;;0.13;0.13;;;;;;;9.10;100.00;100703.38;5050050;28;20182;-75
2022/09/20 02:22:18;;;;;;;0.50;0.50;;;;;;;9.09;100.00;100705.28;5050061;28;20188;-74
2022/09/20 02:25:07;;;;;;;0.17;0.17;;;;;;;9.11;100.00;100705.00;5049639;28;20254;-74
2022/09/20 02:28:03;;;;;;;9.13;1.00;;;;;;;9.12;100.00;100710.16;5049669;28;20182;-74
2022/09/20 02:30:51;;;;;;;0.00;0.00;;;;;;;9.15;100.00;100712.31;5049893;28;20662;-75
2022/09/20 02:33:22;;;;;;;6.33;0.93;;;;;;;9.12;100.00;100712.91;5053684;28;20194;-74
2022/09/20 02:36:26;;;;;;;2.63;0.83;;;;;;;9.09;100.00;100704.47;5053370;28;20171;-73
2022/09/20 02:39:07;;;;;;;0.00;0.00;;;;;;;9.07;100.00;100712.16;5053576;28;20174;-74
2022/09/20 02:41:53;;;;;;;2.43;1.57;;;;;;;9.06;100.00;100710.53;5053581;28;20579;-74
2022/09/20 02:44:30;;;;;;;9.10;0.53;;;;;;;9.02;100.00;100715.75;5053451;28;20178;-74
2022/09/20 02:47:20;;;;;;;0.77;0.67;;;;;;;8.98;100.00;100711.19;5052905;28;20195;-74
2022/09/20 02:50:04;;;;;;;0.17;0.17;;;;;;;8.92;100.00;100713.97;5035305;28;20286;-73
2022/09/20 02:52:47;;;;;;;0.00;0.00;;;;;;;8.89;100.00;100711.84;5053513;28;20228;-75
2022/09/20 02:55:17;;;;;;;0.13;0.10;;;;;;;8.86;100.00;100717.88;5053137;28;20195;-74
2022/09/20 02:58:01;;;;;;;0.23;0.23;;;;;;;8.83;100.00;100721.22;5052121;28;20226;-74
2022/09/20 03:00:37;;;;;;;0.10;0.10;;;;;;;8.79;100.00;100725.59;5054250;28;20881;-74
2022/09/20 03:03:16;;;;;;;5.63;0.47;;;;;;;8.75;100.00;100721.03;5058615;28;20259;-73
2022/09/20 03:05:52;;;;;;;0.63;0.63;;;;;;;8.71;100.00;100720.81;5045798;28;20175;-73
2022/09/20 03:08:35;;;;;;;1.70;1.60;;;;;;;8.70;100.00;100726.56;5066605;28;20178;-73
2022/09/20 03:11:30;;;;;;;0.73;0.70;;;;;;;8.68;100.00;100726.84;5055302;28;20209;-73
2022/09/20 03:14:09;;;;;;;0.83;0.83;;;;;;;8.68;100.00;100726.00;5073253;28;20317;-73
2022/09/20 03:16:52;;;;;;;0.00;0.00;;;;;;;8.68;100.00;100724.13;5072850;28;20209;-74
2022/09/20 03:19:42;;;;;;;0.10;0.10;;;;;;;8.70;100.00;100721.09;5073341;28;20206;-74
2022/09/20 03:22:19;;;;;;;0.03;0.03;;;;;;;8.69;100.00;100722.22;5072890;28;20181;-73
2022/09/20 03:25:22;;;;;;;0.77;0.77;;;;;;;8.71;100.00;100729.00;5055063;28;20273;-74
2022/09/20 03:28:11;;;;;;;0.30;0.30;;;;;;;8.73;100.00;100720.53;5072851;28;20182;-74
2022/09/20 03:30:58;;;;;;;0.47;0.47;;;;;;;8.75;100.00;100724.56;5065047;28;20210;-73
2022/09/20 03:33:49;;;;;;;6.53;1.30;;;;;;;8.73;100.00;100726.78;5051716;28;20559;-74
2022/09/20 03:36:39;;;;;;;1.47;1.37;;;;;;;8.76;100.00;100730.81;5052680;28;20202;-73
2022/09/20 03:39:26;;;;;;;12.10;0.93;;;;;;;8.78;100.00;100723.97;5052843;28;20202;-75
2022/09/20 03:42:10;;;;;;;2.63;0.30;;;;;;;8.80;100.00;100729.94;5052580;28;20167;-73
2022/09/20 03:44:51;;;;;;;0.00;0.00;;;;;;;8.83;100.00;100729.38;5052753;28;20183;-73
2022/09/20 03:47:19;;;;;;;0.63;0.47;;;;;;;8.86;100.00;100738.88;5052384;28;20195;-73
2022/09/20 03:49:51;;;;;;;0.53;0.30;;;;;;;8.89;100.00;100730.91;5052508;28;20214;-74
2022/09/20 03:52:44;;;;;;;0.63;0.63;;;;;;;8.91;100.00;100738.78;5052612;28;20258;-74
2022/09/20 03:55:37;;;;;;;0.00;0.00;;;;;;;8.93;100.00;100742.03;5052562;28;20534;-73
2022/09/20 03:58:40;;;;;;;0.30;0.30;;;;;;;8.91;100.00;100745.06;5052072;28;20782;-75
2022/09/20 04:01:19;;;;;;;11.30;0.73;;;;;;;8.93;100.00;100742.03;5052442;28;20711;-74
2022/09/20 04:04:10;;;;;;;0.13;0.13;;;;;;;8.89;100.00;100733.66;5052452;28;20525;-73
2022/09/20 04:06:45;;;;;;;0.77;0.40;;;;;;;8.89;100.00;100739.09;5048001;28;20198;-74
2022/09/20 04:09:48;;;;;;;0.00;0.00;;;;;;;8.88;100.00;100734.75;5052283;28;20167;-74
2022/09/20 04:12:27;;;;;;;3.20;0.80;;;;;;;8.89;100.00;100741.81;5052084;28;20250;-74
2022/09/20 04:15:21;;;;;;;0.20;0.20;;;;;;;8.94;100.00;100751.81;5052172;28;20489;-76
2022/09/20 04:17:58;;;;;;;0.23;0.23;;;;;;;8.95;100.00;100748.81;5051950;28;20207;-76
2022/09/20 04:20:42;;;;;;;3.33;1.20;;;;;;;8.95;100.00;100758.91;5051969;28;20623;-77
2022/09/20 04:23:31;;;;;;;0.00;0.00;;;;;;;8.95;100.00;100754.25;5052249;28;20171;-77
2022/09/20 04:26:01;;;;;;;4.43;0.47;;;;;;;8.98;100.00;100752.88;5051852;28;20182;-76
2022/09/20 04:28:42;;;;;;;0.80;0.80;;;;;;;9.00;100.00;100747.13;5052264;28;20558;-76
2022/09/20 04:31:33;;;;;;;0.60;0.60;;;;;;;9.01;100.00;100751.50;5051831;28;20179;-76
2022/09/20 04:34:00;;;;;;;0.00;0.00;;;;;;;9.02;100.00;100759.38;5051761;28;20171;-76
2022/09/20 04:36:52;;;;;;;0.00;0.00;;;;;;;9.05;100.00;100760.69;5052025;28;20198;-77
2022/09/20 04:39:41;;;;;;;0.40;0.40;;;;;;;9.08;100.00;100754.66;5071583;28;20737;-76
2022/09/20 04:42:35;;;;;;;0.10;0.10;;;;;;;9.10;100.00;100766.88;5071806;28;20170;-75
2022/09/20 04:45:34;;;;;;;0.00;0.00;;;;;;;9.10;100.00;100753.25;5061714;28;20182;-76
2022/09/20 04:48:20;;;;;;;0.10;0.10;;;;;;;9.13;100.00;100766.31;5071283;28;20193;-77
2022/09/20 04:51:24;;;;;;;0.77;0.67;;;;;;;9.11;100.00;100765.78;5071459;28;20224;-77
2022/09/20 04:54:22;;;;;;;0.00;0.00;;;;;;;9.15;100.00;100774.19;5070842;28;20641;-76
2022/09/20 04:57:03;;;;;;;0.07;0.07;;;;;;;9.18;100.00;100779.03;5053206;28;20198;-77
2022/09/20 04:59:45;;;;;;;0.30;0.30;;;;;;;9.18;100.00;100776.31;5071189;28;20257;-77
2022/09/20 05:02:28;;;;;;;0.43;0.33;;;;;;;9.19;100.00;100786.13;5071263;28;20170;-77
2022/09/20 05:05:13;;;;;;;0.00;0.00;;;;;;;9.20;100.00;100779.56;5071103;28;20175;-76
2022/09/20 05:08:08;;;;;;;0.00;0.00;;;;;;;9.25;100.00;100784.94;5071086;28;20629;-77
2022/09/20 05:11:10;;;;;;;0.40;0.40;;;;;;;9.29;100.00;100794.16;5071213;28;20174;-77
2022/09/20 05:14:03;;;;;;;0.20;0.20;;;;;;;9.31;100.00;100793.88;5071020;28;20190;-73
2022/09/20 05:16:56;;;;;;;2.03;1.43;;;;;;;9.29;100.00;100794.16;5070620;28;20214;-74
2022/09/20 05:19:57;;;;;;;0.00;0.00;;;;;;;9.32;100.00;100798.22;5070994;28;20170;-74
2022/09/20 05:22:53;;;;;;;0.40;0.40;;;;;;;9.32;100.00;100793.56;5070877;28;20166;-74
2022/09/20 05:25:51;;;;;;;0.00;0.00;;;;;;;9.41;100.00;100791.00;5070699;28;20201;-73
2022/09/20 05:28:54;;;;;;;1.10;1.10;;;;;;;9.40;100.00;100795.66;5025842;28;20190;-73
2022/09/20 05:32:02;;;;;;;0.53;0.53;;;;;;;9.41;100.00;100797.28;5070842;28;20247;-73
2022/09/20 05:34:28;;;;;;;0.07;0.07;;;;;;;9.45;100.00;100801.03;4988781;28;20192;-73
2022/09/20 05:37:20;;;;;;;0.30;0.30;;;;;;;9.45;100.00;100802.94;5039589;28;20218;-76
2022/09/20 05:39:55;;;;;;;0.00;0.00;;;;;;;9.44;100.00;100801.31;5070788;28;20178;-75
2022/09/20 05:42:41;;;;;;;0.07;0.07;;;;;;;9.45;100.00;100811.94;5070434;28;20216;-76
2022/09/20 05:45:35;;;;;;;2.10;0.40;;;;;;;9.46;100.00;100816.28;5070109;28;20261;-74
2022/09/20 05:48:09;;;;;;;0.00;0.00;;;;;;;9.46;100.00;100819.00;5069977;28;20182;-72
2022/09/20 05:50:44;;;;;;;3.23;1.80;;;;;;;9.46;100.00;100813.53;5070222;28;20739;-72
2022/09/20 05:53:33;;;;;;;0.30;0.30;;;;;;;9.45;100.00;100820.09;5070262;28;20182;-72
2022/09/20 05:56:10;;;;;;;3.77;1.07;;;;;;;9.46;100.00;100823.66;5069694;28;20175;-71
2022/09/20 05:59:03;;;;;;;0.47;0.47;;;;;;;9.42;100.00;100823.44;5070093;28;20167;-72
2022/09/20 06:01:36;;;;;;;1.40;1.40;;;;;;;9.41;100.00;100830.00;5070147;28;20179;-71
2022/09/20 06:04:21;;;;;;;7.30;1.30;;;;;;;9.35;100.00;100830.34;5069997;28;20214;-71
2022/09/20 06:06:58;;;;;;;2.03;0.83;;;;;;;9.32;100.00;100831.75;5071666;28;20166;-71
2022/09/20 06:09:33;;;;;;;0.00;0.00;;;;;;;9.33;100.00;100832.56;5074530;28;20288;-72
2022/09/20 06:12:13;;;;;;;0.00;0.00;;;;;;;9.38;100.00;100835.19;5074115;28;20219;-71
2022/09/20 06:14:50;;;;;;;0.00;0.00;;;;;;;9.43;100.00;100830.50;5074031;28;20245;-72
2022/09/20 06:17:26;;;;;;;0.27;0.27;;;;;;;9.42;100.00;100836.25;5073786;28;20252;-72
2022/09/20 06:19:51;;;;;;;0.00;0.00;;;;;;;9.38;100.00;100833.28;5074010;28;20216;-71
2022/09/20 06:22:31;;;;;;;0.00;0.00;;;;;;;9.35;100.00;100833.88;5073859;28;20163;-72
2022/09/20 06:25:11;;;;;;;0.67;0.27;;;;;;;9.39;100.00;100843.09;5073839;28;20522;-72
2022/09/20 06:28:22;;;;;;;0.00;0.00;;;;;;;9.43;100.00;100846.88;5073606;28;20702;-72
2022/09/20 06:30:54;;;;;;;0.13;0.13;;;;;;;9.41;100.00;100849.09;5073084;28;20276;-75
2022/09/20 06:33:24;;;;;;;0.53;0.53;;;;;;;9.40;100.00;100850.19;5057468;28;20525;-75
2022/09/20 06:42:09;;;;;;;0.50;0.50;;;;;;;9.34;100.00;100848.63;5073975;28;20189;-75
2022/09/20 06:44:35;;;;;;;0.50;0.50;;;;;;;9.37;100.00;100855.41;5073707;28;20171;-72
2022/09/20 06:47:00;;;;;;;0.00;0.00;;;;;;;9.38;100.00;100848.84;5073964;28;20558;-72
2022/09/20 06:49:27;;;;;;;0.00;0.00;;;;;;;9.39;100.00;100855.91;5073750;28;20200;-74
2022/09/20 06:51:54;;;;;;;0.10;0.10;;;;;;;9.44;100.00;100856.66;5073562;28;20177;-73
2022/09/20 06:54:21;;;;;;;0.00;0.00;;;;;;;9.54;100.00;100867.41;5053821;28;20644;-73
2022/09/20 06:56:50;;;;;;;0.00;0.00;;;;;;;9.61;100.00;100861.63;5053468;28;20209;-72
2022/09/20 06:59:15;;;;;;;0.17;0.17;;;;;;;9.67;100.00;100871.34;5053430;28;20424;-72
2022/09/20 07:01:42;;;;;;;0.53;0.53;;;;;;;9.63;100.00;100864.84;5053526;28;20682;-72
2022/09/20 07:04:08;;;;;;;0.07;0.07;;;;;;;9.61;100.00;100872.53;5053540;28;20179;-72
2022/09/20 07:06:34;;;;;;;0.00;0.00;;;;;;;9.60;100.00;100867.38;5053369;28;20211;-73
2022/09/20 07:08:59;;;;;;;0.00;0.00;;;;;;;9.63;100.00;100873.03;5053578;28;20206;-74
2022/09/20 07:11:25;;;;;;;0.00;0.00;;;;;;;9.65;100.00;100867.28;5053429;28;20634;-74
2022/09/20 07:13:59;;;;;;;0.33;0.33;;;;;;;9.70;100.00;100872.69;5052085;28;20418;-75
2022/09/20 07:16:25;;;;;;;8.20;2.77;;;;;;;9.72;100.00;100881.38;5053194;28;20206;-75
2022/09/20 07:18:51;;;;;;;0.20;0.20;;;;;;;9.73;100.00;100880.28;5053003;28;20547;-72
2022/09/20 07:21:18;;;;;;;0.83;0.73;;;;;;;9.82;100.00;100878.50;5053248;28;20506;-72
2022/09/20 07:23:50;;;;;;;0.00;0.00;;;;;;;9.80;100.00;100886.16;5053142;28;20171;-72
2022/09/20 07:26:22;;;;;;;0.57;0.57;;;;;;;9.76;100.00;100883.22;5035172;28;20179;-72
2022/09/20 07:28:48;;;;;;;1.33;0.90;;;;;;;9.81;100.00;100883.13;5052994;28;20235;-72
2022/09/20 07:31:16;;;;;;;0.07;0.07;;;;;;;9.83;100.00;100891.03;5052967;28;20175;-76
2022/09/20 07:33:41;;;;;;;0.20;0.20;;;;;;;9.92;100.00;100892.00;5052846;28;20629;-77
2022/09/20 07:36:08;;;;;;;0.00;0.00;;;;;;;9.94;100.00;100897.97;5052780;28;20209;-76
2022/09/20 07:38:33;;;;;;;0.00;0.00;;;;;;;9.93;100.00;100895.53;5052763;28;20187;-74
2022/09/20 07:41:01;;;;;;;14.10;1.17;;;;;;;10.05;100.00;100893.97;5053129;28;20178;-73
2022/09/20 07:43:27;;;;;;;0.20;0.20;;;;;;;10.08;100.00;100903.50;5052621;28;20774;-75
2022/09/20 07:45:54;;;;;;;0.00;0.00;;;;;;;10.15;100.00;100898.47;5058135;28;20171;-74
2022/09/20 07:48:21;;;;;;;0.50;0.50;;;;;;;10.12;100.00;100905.31;5073009;28;20818;-74
2022/09/20 07:50:55;;;;;;;0.40;0.40;;;;;;;10.12;100.00;100910.78;5072808;28;20219;-75
2022/09/20 07:53:20;;;;;;;1.17;0.63;;;;;;;10.09;100.00;100911.38;5072656;28;20169;-76
2022/09/20 07:56:00;;;;;;;0.93;0.93;;;;;;;10.13;100.00;100922.53;5072295;28;20175;-73
2022/09/20 07:58:26;;;;;;;10.20;1.20;;;;;;;10.05;100.00;100915.81;5072555;28;20609;-74
2022/09/20 08:00:53;;;;;;;0.00;0.00;;;;;;;10.05;100.00;100929.47;5072491;28;20224;-76
2022/09/20 08:03:19;;;;;;;0.10;0.10;;;;;;;10.09;100.00;100930.50;5054689;28;20640;-74
2022/09/20 08:05:44;;;;;;;0.10;0.10;;;;;;;10.14;100.00;100938.63;5072692;28;20175;-74
2022/09/20 08:08:10;;;;;;;0.83;0.77;;;;;;;10.13;100.00;100939.72;5072021;28;20181;-76
2022/09/20 08:10:37;;;;;;;0.00;0.00;;;;;;;10.10;100.00;100942.22;5072268;28;20182;-75
2022/09/20 08:13:02;;;;;;;7.33;0.80;;;;;;;10.16;100.00;100948.44;5072218;28;20626;-75
2022/09/20 08:15:28;;;;;;;0.00;0.00;;;;;;;10.22;100.00;100944.53;5053661;28;20193;-74
2022/09/20 08:17:53;;;;;;;0.83;0.70;;;;;;;10.27;100.00;100944.44;5071446;28;20611;-75
2022/09/20 08:20:19;;;;;;;0.40;0.40;;;;;;;10.36;100.00;100940.75;5071662;28;20736;-74
2022/09/20 08:22:45;;;;;;;0.37;0.37;;;;;;;10.38;100.00;100946.72;5071571;28;20207;-78
2022/09/20 08:25:10;;;;;;;0.10;0.10;;;;;;;10.40;100.00;100958.16;5072137;28;20530;-78
2022/09/20 08:27:36;;;;;;;4.10;0.80;;;;;;;10.54;100.00;100954.69;5073079;28;20171;-78
2022/09/20 08:30:01;;;;;;;6.00;1.33;;;;;;;10.62;100.00;100952.09;5071216;28;20219;-78
2022/09/20 08:32:27;;;;;;;0.00;0.00;;;;;;;10.75;100.00;100960.63;5071919;28;20618;-79
2022/09/20 08:34:52;;;;;;;0.00;0.00;;;;;;;10.93;100.00;100957.00;5071739;28;20673;-79
2022/09/20 08:37:18;;;;;;;0.00;0.00;;;;;;;11.04;100.00;100963.94;5070306;28;20206;-79
2022/09/20 08:39:43;;;;;;;0.10;0.10;;;;;;;11.22;100.00;100962.22;5053907;28;20202;-77
2022/09/20 08:42:30;;;;;;;0.50;0.50;;;;;;;11.33;100.00;100967.19;5071639;28;20240;-77
2022/09/20 08:45:12;;;;;;;0.20;0.20;;;;;;;11.52;100.00;100971.75;5071140;28;20251;-77
2022/09/20 08:47:47;;;;;;;0.00;0.00;;;;;;;11.63;100.00;100965.75;5070695;28;20189;-76
2022/09/20 08:50:14;;;;;;;1.10;1.00;;;;;;;11.84;100.00;100976.31;5071079;28;20269;-78
2022/09/20 08:52:44;;;;;;;0.00;0.00;;;;;;;11.91;100.00;100973.97;5071162;28;20618;-76
2022/09/20 08:55:20;;;;;;;0.73;0.73;;;;;;;11.97;100.00;100977.41;5071022;28;20729;-77
2022/09/20 08:57:52;;;;;;;0.00;0.00;;;;;;;11.90;100.00;100973.16;5070427;28;20237;-77
2022/09/20 09:00:21;;;;;;;1.50;0.77;;;;;;;11.82;100.00;100984.00;5071010;28;20224;-77
2022/09/20 09:02:52;;;;;;;0.00;0.00;;;;;;;11.72;100.00;100984.22;5070927;28;20181;-78
2022/09/20 09:05:34;;;;;;;0.40;0.40;;;;;;;11.76;100.00;100987.97;5070773;28;20187;-77
2022/09/20 09:08:05;;;;;;;1.40;1.30;;;;;;;11.74;100.00;100984.72;5070545;28;20309;-77
2022/09/20 09:10:36;;;;;;;0.63;0.63;;;;;;;11.77;100.00;100987.66;5071238;28;20177;-73
2022/09/20 09:13:03;;;;;;;0.43;0.43;;;;;;;11.81;100.00;100991.41;5070879;28;20528;-78
2022/09/20 09:15:33;;;;;;;0.00;0.00;;;;;;;11.85;100.00;100983.41;5070552;28;20235;-74
2022/09/20 09:18:00;;;;;;;0.00;0.00;;;;;;;11.87;100.00;100986.66;5070618;28;20285;-73
2022/09/20 09:20:26;;;;;;;2.03;1.93;;;;;;;11.95;100.00;100979.66;5070552;28;20227;-74
2022/09/20 09:23:08;;;;;;;0.10;0.10;;;;;;;11.97;100.00;100988.34;5070597;28;20265;-74
2022/09/20 09:25:39;;;;;;;0.00;0.00;;;;;;;11.89;100.00;100996.19;5070481;28;20170;-73
2022/09/20 09:28:07;;;;;;;0.50;0.10;;;;;;;11.95;100.00;100996.88;5052629;28;20239;-73
2022/09/20 09:30:40;;;;;;;0.10;0.10;;;;;;;11.82;100.00;100987.56;5070450;28;20186;-73
2022/09/20 09:33:22;;;;;;;0.27;0.27;;;;;;;11.79;100.00;101003.81;5070344;28;20693;-73
2022/09/20 09:36:24;;;;;;;1.03;1.03;;;;;;;11.95;100.00;100996.06;5070233;28;20177;-74
2022/09/20 09:39:10;;;;;;;7.10;1.03;;;;;;;12.04;100.00;100996.97;5070283;28;20633;-74
2022/09/20 09:41:35;;;;;;;15.63;1.23;;;;;;;12.05;100.00;100993.13;5052067;28;20532;-73
2022/09/20 09:44:08;;;;;;;2.17;2.07;;;;;;;12.19;100.00;101004.84;5070447;28;20175;-74
2022/09/20 09:46:35;;;;;;;0.00;0.00;;;;;;;12.09;100.00;100994.13;5069804;28;20190;-73
2022/09/20 09:49:17;;;;;;;0.63;0.63;;;;;;;12.25;100.00;101000.06;5070534;28;20698;-73
2022/09/20 09:51:59;;;;;;;0.00;0.00;;;;;;;12.33;100.00;100999.34;5070206;28;20181;-74
2022/09/20 09:54:27;;;;;;;0.97;0.77;;;;;;;12.29;100.00;101004.59;5070495;28;20197;-73
2022/09/20 09:57:19;;;;;;;0.30;0.30;;;;;;;12.27;99.36;101009.59;5069978;28;20293;-73
2022/09/20 09:59:50;;;;;;;0.03;0.03;;;;;;;12.36;98.01;100998.72;5069859;28;20253;-73
2022/09/20 10:02:28;;;;;;;0.00;0.00;;;;;;;12.32;96.62;101000.47;5070427;28;20198;-74
2022/09/20 10:05:02;;;;;;;0.00;0.00;;;;;;;12.43;96.72;101001.81;5070177;28;20174;-73
2022/09/20 10:08:02;;;;;;;0.00;0.00;;;;;;;12.68;96.79;100997.66;5058655;28;20267;-73
2022/09/20 10:10:59;;;;;;;0.00;0.00;;;;;;;12.67;94.29;101004.28;5036735;28;20206;-75
2022/09/20 10:13:40;;;;;;;0.17;0.17;;;;;;;12.73;93.78;100997.53;5047401;28;20179;-72
2022/09/20 10:16:28;;;;;;;0.70;0.70;;;;;;;12.82;94.28;100999.22;5057119;28;20265;-76
2022/09/20 10:19:00;;;;;;;0.00;0.00;;;;;;;12.97;94.81;100997.22;5053609;28;20217;-73
2022/09/20 10:21:50;;;;;;;0.27;0.27;;;;;;;12.93;94.28;100998.97;5065793;28;20178;-73
2022/09/20 10:24:29;;;;;;;0.00;0.00;;;;;;;12.56;91.83;100991.94;5050465;28;20183;-76
2022/09/20 10:27:26;;;;;;;0.00;0.00;;;;;;;12.75;93.73;100998.88;5050162;28;20700;-75
2022/09/20 10:30:13;;;;;;;0.17;0.17;;;;;;;12.89;92.59;101001.53;5047838;28;20211;-75
2022/09/20 10:33:23;;;;;;;1.40;1.03;;;;;;;12.86;91.41;100999.41;5050331;28;20201;-75
2022/09/20 10:36:06;;;;;;;0.20;0.20;;;;;;;12.78;93.41;101006.47;5024647;28;20188;-77
2022/09/20 10:38:50;;;;;;;0.40;0.30;;;;;;;12.81;92.80;100996.78;5027782;28;20208;-77
2022/09/20 10:44:25;;;;;;;0.00;0.00;;;;;;;12.76;92.44;101005.97;5049319;28;20185;-76
2022/09/20 10:46:51;;;;;;;0.57;0.57;;;;;;;12.86;92.25;101007.63;5051291;28;20187;-76
2022/09/20 10:49:31;;;;;;;0.00;0.00;;;;;;;12.91;92.46;101004.78;5049481;28;20254;-75
2022/09/20 10:52:41;;;;;;;0.00;0.00;;;;;;;12.97;91.93;101003.50;5052790;28;20282;-76
2022/09/20 10:57:51;;;;;;;0.00;0.00;;;;;;;12.93;89.16;101005.25;5087108;28;21177;-76
2022/09/20 11:00:20;;;;;;;0.00;0.00;;;;;;;12.91;87.60;101002.03;5087866;28;20178;-78
2022/09/20 11:03:03;;;;;;;0.00;0.00;;;;;;;12.91;85.63;101002.03;5083425;28;20212;-78
2022/09/20 11:05:36;;;;;;;5.63;0.47;;;;;;;13.17;84.73;101004.94;5083882;28;20217;-78
2022/09/20 11:08:11;;;;;;;0.00;0.00;;;;;;;13.46;83.81;101009.13;5087513;28;20193;-77
2022/09/20 11:10:46;;;;;;;0.00;0.00;;;;;;;13.63;84.51;101015.50;5087765;28;20174;-76
2022/09/20 11:13:24;;;;;;;0.13;0.13;;;;;;;13.55;83.05;101008.00;5087654;28;20173;-76
2022/09/20 11:16:07;;;;;;;0.00;0.00;;;;;;;13.46;82.98;101003.63;5087247;28;20463;-77
2022/09/20 11:18:47;;;;;;;0.10;0.10;;;;;;;13.40;83.27;101006.50;5087491;28;20178;-75
2022/09/20 11:21:38;;;;;;;1.63;1.30;;;;;;;13.49;84.63;101009.28;5087517;28;20193;-75
2022/09/20 11:24:15;;;;;;;2.43;0.87;;;;;;;13.43;83.61;101012.47;5076051;28;20194;-77
2022/09/20 11:26:49;;;;;;;3.60;0.47;;;;;;;13.39;84.62;101010.38;5087119;28;20215;-77
2022/09/20 11:29:25;;;;;;;0.00;0.00;;;;;;;13.30;81.54;101005.97;5087455;28;20174;-78
2022/09/20 11:31:54;;;;;;;0.00;0.00;;;;;;;13.47;82.19;101016.22;5086153;28;20193;-76
2022/09/20 11:34:28;;;;;;;0.10;0.10;;;;;;;13.51;81.46;101007.03;5087395;28;20216;-78
2022/09/20 11:37:02;;;;;;;0.37;0.37;;;;;;;13.43;79.66;101010.53;5086959;28;20201;-77
2022/09/20 11:39:39;;;;;;;0.00;0.00;;;;;;;13.49;79.07;101013.97;5087100;28;20571;-77
2022/09/20 11:42:12;;;;;;;0.00;0.00;;;;;;;13.81;79.77;101007.28;5087216;28;20554;-74
2022/09/20 11:44:40;;;;;;;0.00;0.00;;;;;;;14.00;77.97;101014.13;5087094;28;20570;-76
2022/09/20 11:47:20;;;;;;;0.33;0.33;;;;;;;14.33;77.98;101010.13;5086173;28;20233;-76
2022/09/20 11:49:54;;;;;;;0.00;0.00;;;;;;;14.40;76.15;101016.75;5087154;28;20169;-75
2022/09/20 11:52:40;;;;;;;0.00;0.00;;;;;;;14.47;75.63;101011.63;5087199;28;20235;-76
2022/09/20 11:55:30;;;;;;;0.00;0.00;;;;;;;14.28;76.95;101013.84;5086885;28;20202;-76
2022/09/20 11:58:07;;;;;;;0.30;0.30;;;;;;;14.26;78.15;101008.66;5086497;28;20185;-76
2022/09/20 12:00:36;;;;;;;0.40;0.40;;;;;;;14.26;77.24;101010.59;5087310;28;20197;-75
2022/09/20 12:03:05;;;;;;;0.00;0.00;;;;;;;14.41;76.48;101017.56;5086816;28;20174;-76
2022/09/20 12:05:37;;;;;;;0.13;0.13;;;;;;;14.10;70.95;101003.97;5086734;28;20223;-75
2022/09/20 12:08:26;;;;;;;0.53;0.27;;;;;;;14.12;72.00;101005.25;5076311;28;20170;-77
2022/09/20 12:11:13;;;;;;;0.00;0.00;;;;;;;14.19;74.03;101000.09;5071671;28;20186;-76
2022/09/20 12:13:41;;;;;;;0.00;0.00;;;;;;;14.25;73.88;101009.00;5072122;28;20182;-76
2022/09/20 12:16:10;;;;;;;0.00;0.00;;;;;;;14.16;73.62;100999.91;5073406;28;20211;-76
2022/09/20 12:18:46;;;;;;;0.10;0.10;;;;;;;14.05;72.64;101002.19;5073666;28;20258;-73
2022/09/20 12:21:15;;;;;;;0.20;0.20;;;;;;;14.19;72.84;101000.09;5073470;28;20246;-75
2022/09/20 12:23:59;;;;;;;0.00;0.00;;;;;;;14.30;69.67;100997.81;5071988;28;20258;-76
2022/09/20 12:26:24;;;;;;;0.00;0.00;;;;;;;14.24;69.97;101001.88;5073277;28;20208;-76